createdAt,value
2017-11-13T00:01:44.340Z,16.97
2017-11-13T00:04:11.855Z,19.30
2017-11-13T00:06:39.437Z,18.23
2017-11-13T00:09:06.949Z,16.00
2017-11-13T00:11:34.475Z,19.80
2017-11-13T00:14:02.027Z,18.37
2017-11-13T00:16:29.532Z,17.33
2017-11-13T00:19:07.486Z,17.27
2017-11-13T00:21:36.888Z,17.50
2017-11-13T00:24:04.461Z,16.83
2017-11-13T00:26:31.979Z,17.77
2017-11-13T00:28:59.523Z,16.03
2017-11-13T00:31:27.847Z,17.02
2017-11-13T00:33:55.383Z,19.13
2017-11-13T00:36:22.928Z,17.90
2017-11-13T00:38:51.383Z,19.03
2017-11-13T00:41:20.724Z,17.60
2017-11-13T00:43:48.632Z,16.03
2017-11-13T00:46:16.179Z,17.50
2017-11-13T00:48:43.720Z,19.45
2017-11-13T00:51:11.636Z,18.53
2017-11-13T00:53:41.100Z,17.27
2017-11-13T00:56:08.639Z,15.35
2017-11-13T00:58:36.172Z,15.90
2017-11-13T01:01:04.512Z,16.77
2017-11-13T01:03:32.056Z,17.27
2017-11-13T01:05:59.571Z,15.20
2017-11-13T01:08:27.919Z,14.43
2017-11-13T01:10:55.456Z,16.77
2017-11-13T01:13:22.995Z,15.27
2017-11-13T01:15:50.576Z,15.87
2017-11-13T01:18:18.152Z,16.20
2017-11-13T01:20:46.059Z,15.60
2017-11-13T01:23:14.363Z,15.30
2017-11-13T01:25:41.872Z,14.40
2017-11-13T01:28:09.408Z,15.13
2017-11-13T01:30:36.965Z,17.23
2017-11-13T01:33:04.511Z,13.30
2017-11-13T01:35:32.789Z,16.50
2017-11-13T01:38:01.125Z,16.40
2017-11-13T01:40:29.435Z,18.07
2017-11-13T01:42:56.952Z,14.75
2017-11-13T01:45:24.504Z,15.20
2017-11-13T01:47:52.018Z,13.00
2017-11-13T01:50:19.556Z,15.80
2017-11-13T01:52:47.110Z,14.97
2017-11-13T01:55:15.035Z,15.53
2017-11-13T01:57:42.583Z,14.98
2017-11-13T02:00:10.148Z,16.30
2017-11-13T02:02:37.694Z,14.05
2017-11-13T02:05:06.034Z,13.80
2017-11-13T02:07:33.663Z,15.05
2017-11-13T02:10:01.215Z,13.07
2017-11-13T02:12:29.148Z,18.50
2017-11-13T02:14:57.156Z,13.98
2017-11-13T02:17:24.714Z,15.20
2017-11-13T02:19:52.346Z,14.30
2017-11-13T02:22:25.333Z,14.80
2017-11-13T02:24:56.682Z,14.73
2017-11-13T02:27:25.099Z,13.90
2017-11-13T02:29:52.620Z,14.73
2017-11-13T02:32:20.184Z,13.23
2017-11-13T02:34:48.880Z,13.30
2017-11-13T02:37:16.439Z,15.35
2017-11-13T02:39:43.984Z,13.70
2017-11-13T02:42:12.685Z,16.62
2017-11-13T02:44:40.260Z,13.77
2017-11-13T02:47:07.794Z,13.88
2017-11-13T02:49:35.764Z,13.60
2017-11-13T02:52:03.340Z,13.30
2017-11-13T02:54:31.279Z,13.75
2017-11-13T02:56:58.864Z,13.02
2017-11-13T02:59:26.423Z,14.37
2017-11-13T03:01:53.941Z,13.15
2017-11-13T03:04:22.257Z,13.48
2017-11-13T03:06:49.788Z,13.40
2017-11-13T03:09:18.070Z,13.18
2017-11-13T03:11:45.650Z,14.47
2017-11-13T03:14:14.691Z,11.63
2017-11-13T03:16:42.236Z,13.35
2017-11-13T03:19:09.788Z,12.80
2017-11-13T03:21:37.310Z,13.07
2017-11-13T03:24:04.853Z,15.75
2017-11-13T03:26:32.495Z,12.77
2017-11-13T03:29:00.040Z,12.70
2017-11-13T03:31:27.800Z,11.35
2017-11-13T03:33:56.499Z,12.87
2017-11-13T03:36:24.036Z,10.93
2017-11-13T03:38:51.548Z,13.00
2017-11-13T03:41:20.600Z,13.97
2017-11-13T03:43:48.488Z,13.13
2017-11-13T03:46:17.168Z,14.82
2017-11-13T03:48:44.707Z,11.82
2017-11-13T03:51:12.241Z,13.50
2017-11-13T03:53:41.119Z,11.65
2017-11-13T03:56:08.664Z,10.57
2017-11-13T03:58:36.956Z,11.00
2017-11-13T04:01:04.504Z,12.70
2017-11-13T04:03:32.515Z,12.45
2017-11-13T04:06:00.027Z,12.07
2017-11-13T04:08:28.331Z,10.80
2017-11-13T04:10:56.998Z,11.10
2017-11-13T04:13:24.511Z,11.10
2017-11-13T04:15:52.404Z,11.32
2017-11-13T04:18:21.121Z,11.40
2017-11-13T04:20:48.644Z,12.43
2017-11-13T04:23:16.675Z,12.27
2017-11-13T04:25:44.235Z,15.00
2017-11-13T04:28:11.756Z,9.63
2017-11-13T04:30:40.401Z,11.93
2017-11-13T04:33:07.947Z,12.23
2017-11-13T04:35:35.459Z,12.77
2017-11-13T04:38:03.421Z,11.77
2017-11-13T04:40:32.310Z,11.27
2017-11-13T04:43:00.620Z,10.95
2017-11-13T04:45:28.557Z,10.90
2017-11-13T04:47:56.877Z,12.45
2017-11-13T04:50:25.155Z,10.90
2017-11-13T04:52:52.675Z,12.60
2017-11-13T04:55:21.003Z,10.20
2017-11-13T04:57:48.535Z,9.47
2017-11-13T05:00:16.819Z,11.77
2017-11-13T05:02:44.395Z,10.57
2017-11-13T05:05:11.956Z,10.80
2017-11-13T05:07:39.491Z,10.90
2017-11-13T05:10:08.672Z,9.80
2017-11-13T05:12:36.963Z,11.50
2017-11-13T05:15:05.236Z,10.37
2017-11-13T05:17:32.837Z,14.02
2017-11-13T05:20:00.759Z,11.40
2017-11-13T05:22:33.260Z,12.15
2017-11-13T05:25:01.620Z,10.33
2017-11-13T05:27:29.555Z,9.50
2017-11-13T05:29:57.946Z,11.10
2017-11-13T05:32:25.467Z,9.20
2017-11-13T05:34:53.378Z,10.20
2017-11-13T05:37:21.325Z,9.82
2017-11-13T05:42:47.235Z,10.18
2017-11-13T05:45:14.796Z,10.13
2017-11-13T05:47:43.693Z,9.30
2017-11-13T05:50:11.251Z,10.60
2017-11-13T05:52:39.155Z,9.45
2017-11-13T05:55:06.660Z,9.43
2017-11-13T05:57:34.636Z,10.67
2017-11-13T06:00:02.177Z,10.13
2017-11-13T06:02:30.168Z,9.53
2017-11-13T06:04:58.835Z,9.25
2017-11-13T06:07:27.129Z,11.90
2017-11-13T06:09:55.051Z,12.70
2017-11-13T06:12:24.111Z,9.53
2017-11-13T06:14:51.669Z,9.38
2017-11-13T06:17:20.016Z,8.13
2017-11-13T06:19:47.548Z,10.38
2017-11-13T06:22:16.433Z,9.10
2017-11-13T06:24:44.721Z,8.55
2017-11-13T06:27:12.667Z,11.03
2017-11-13T06:29:40.191Z,16.13
2017-11-13T06:32:07.742Z,18.80
2017-11-13T06:34:35.335Z,18.00
2017-11-13T06:37:02.861Z,18.83
2017-11-13T06:39:30.439Z,23.00
2017-11-13T06:41:58.763Z,17.15
2017-11-13T06:44:26.660Z,20.27
2017-11-13T06:46:54.188Z,19.70
2017-11-13T06:49:22.156Z,23.87
2017-11-13T06:51:51.907Z,17.33
2017-11-13T06:54:20.079Z,20.30
2017-11-13T06:56:47.611Z,23.37
2017-11-13T06:59:15.519Z,19.65
2017-11-13T07:01:43.068Z,20.17
2017-11-13T07:04:10.629Z,19.05
2017-11-13T07:06:38.567Z,23.63
2017-11-13T07:09:06.484Z,17.90
2017-11-13T07:11:34.030Z,26.37
2017-11-13T07:14:02.418Z,18.30
2017-11-13T07:16:29.964Z,19.37
2017-11-13T07:18:58.534Z,17.30
2017-11-13T07:21:26.524Z,14.40
2017-11-13T07:23:54.067Z,17.10
2017-11-13T07:26:21.651Z,14.93
2017-11-13T07:28:49.238Z,12.80
2017-11-13T07:31:16.759Z,13.85
2017-11-13T07:33:44.704Z,10.70
2017-11-13T07:36:12.239Z,10.50
2017-11-13T07:38:39.765Z,14.40
2017-11-13T07:41:07.348Z,14.97
2017-11-13T07:43:35.266Z,10.82
2017-11-13T07:46:02.800Z,12.17
2017-11-13T07:48:31.508Z,13.30
2017-11-13T07:50:59.027Z,9.65
2017-11-13T07:53:28.040Z,9.02
2017-11-13T07:55:56.377Z,13.65
2017-11-13T07:58:24.733Z,13.13
2017-11-13T08:00:52.244Z,10.13
2017-11-13T08:03:19.815Z,10.13
2017-11-13T08:05:48.469Z,11.57
2017-11-13T08:08:16.076Z,10.70
2017-11-13T08:10:44.424Z,10.07
2017-11-13T08:13:12.331Z,10.67
2017-11-13T08:15:41.235Z,7.95
2017-11-13T08:18:08.811Z,11.30
2017-11-13T08:20:36.357Z,10.97
2017-11-13T08:23:04.375Z,8.90
2017-11-13T08:25:31.951Z,7.10
2017-11-13T08:28:00.260Z,9.43
2017-11-13T08:30:28.191Z,9.48
2017-11-13T08:32:56.164Z,10.00
2017-11-13T08:35:24.100Z,8.70
2017-11-13T08:37:52.751Z,9.80
2017-11-13T08:40:20.322Z,8.47
2017-11-13T08:42:47.840Z,10.48
2017-11-13T08:45:16.135Z,6.97
2017-11-13T08:47:44.137Z,9.77
2017-11-13T08:50:12.984Z,8.50
2017-11-13T08:52:40.883Z,7.07
2017-11-13T08:55:09.591Z,6.70
2017-11-13T08:57:37.097Z,7.60
2017-11-13T09:00:05.392Z,6.00
2017-11-13T09:02:32.963Z,5.90
2017-11-13T09:05:00.871Z,5.28
2017-11-13T09:07:28.397Z,6.18
2017-11-13T09:09:57.104Z,5.13
2017-11-13T09:12:24.612Z,5.45
2017-11-13T09:14:52.535Z,3.93
2017-11-13T09:17:20.091Z,4.25
2017-11-13T09:19:48.371Z,3.58
2017-11-13T09:22:15.901Z,4.70
2017-11-13T09:24:44.607Z,3.83
2017-11-13T09:27:12.140Z,3.40
2017-11-13T09:29:41.248Z,3.78
2017-11-13T09:32:10.306Z,2.83
2017-11-13T09:34:38.231Z,2.90
2017-11-13T09:37:05.771Z,2.20
2017-11-13T09:39:33.711Z,2.87
2017-11-13T09:42:01.663Z,3.20
2017-11-13T09:44:29.983Z,3.30
2017-11-13T09:46:58.711Z,9.38
2017-11-13T09:49:26.231Z,4.00
2017-11-13T09:51:58.905Z,4.60
2017-11-13T09:54:27.644Z,4.13
2017-11-13T09:56:55.956Z,4.65
2017-11-13T09:59:23.517Z,5.25
2017-11-13T10:01:51.083Z,4.72
2017-11-13T10:04:18.670Z,3.80
2017-11-13T10:06:46.232Z,4.70
2017-11-13T10:09:13.735Z,4.97
2017-11-13T10:11:42.031Z,4.22
2017-11-13T10:14:09.574Z,6.23
2017-11-13T10:16:38.635Z,1.75
2017-11-13T10:19:06.183Z,2.55
2017-11-13T10:21:33.740Z,2.25
2017-11-13T10:24:01.285Z,3.10
2017-11-13T10:26:28.804Z,5.32
2017-11-13T10:28:57.768Z,5.93
2017-11-13T10:31:26.447Z,3.00
2017-11-13T10:33:53.968Z,5.95
2017-11-13T10:36:21.520Z,3.10
2017-11-13T10:38:49.439Z,2.65
2017-11-13T10:41:17.042Z,3.50
2017-11-13T10:43:44.909Z,3.20
2017-11-13T10:46:12.447Z,4.75
2017-11-13T10:48:39.973Z,3.17
2017-11-13T10:51:08.319Z,2.05
2017-11-13T10:53:36.609Z,3.37
2017-11-13T10:56:04.151Z,5.80
2017-11-13T10:58:31.713Z,3.37
2017-11-13T11:01:00.040Z,3.75
2017-11-13T11:03:27.632Z,4.78
2017-11-13T11:05:56.328Z,6.07
2017-11-13T11:08:24.612Z,3.25
2017-11-13T11:10:52.128Z,2.80
2017-11-13T11:26:53.916Z,6.78
2017-11-13T11:29:28.352Z,5.00
2017-11-13T11:35:19.767Z,1.70
2017-11-13T11:37:55.768Z,1.90
2017-11-13T11:40:23.299Z,2.10
2017-11-13T11:42:50.843Z,5.07
2017-11-13T11:45:31.996Z,2.15
2017-11-13T12:01:19.164Z,2.10
2017-11-13T12:03:46.680Z,3.90
2017-11-13T12:06:14.188Z,3.58
2017-11-13T12:08:42.507Z,3.87
2017-11-13T12:11:10.780Z,4.55
2017-11-13T12:13:38.288Z,3.08
2017-11-13T12:16:05.851Z,4.18
2017-11-13T12:18:34.163Z,2.87
2017-11-13T12:21:01.681Z,4.07
2017-11-13T12:23:29.251Z,2.60
2017-11-13T12:25:56.787Z,2.30
2017-11-13T12:28:25.180Z,5.70
2017-11-13T12:30:52.733Z,4.78
2017-11-13T12:33:20.632Z,2.67
2017-11-13T12:35:48.163Z,2.45
2017-11-13T12:38:15.732Z,4.07
2017-11-13T12:40:45.700Z,9.07
2017-11-13T12:43:13.236Z,3.28
2017-11-13T12:45:40.808Z,2.33
2017-11-13T12:48:08.347Z,5.55
2017-11-13T12:50:35.867Z,3.62
2017-11-13T12:53:04.168Z,6.18
2017-11-13T12:55:31.671Z,4.53
2017-11-13T12:57:59.179Z,8.05
2017-11-13T13:00:26.735Z,4.32
2017-11-13T13:02:54.292Z,2.37
2017-11-13T13:05:22.288Z,10.90
2017-11-13T13:07:49.851Z,6.13
2017-11-13T13:10:17.364Z,10.50
2017-11-13T13:12:45.270Z,3.03
2017-11-13T13:15:12.864Z,2.10
2017-11-13T13:17:40.406Z,2.10
2017-11-13T13:20:08.711Z,2.58
2017-11-13T13:22:36.258Z,2.20
2017-11-13T13:25:04.192Z,1.57
2017-11-13T13:27:31.728Z,3.60
2017-11-13T13:29:59.280Z,3.27
2017-11-13T13:32:27.597Z,2.20
2017-11-13T13:34:55.536Z,4.37
2017-11-13T13:37:23.055Z,4.05
2017-11-13T13:39:51.344Z,2.30
2017-11-13T13:42:18.852Z,30.53
2017-11-13T13:44:46.359Z,3.10
2017-11-13T13:47:13.927Z,3.80
2017-11-13T13:49:42.227Z,9.53
2017-11-13T13:52:10.640Z,12.43
2017-11-13T13:54:38.179Z,13.53
2017-11-13T13:57:05.700Z,17.20
2017-11-13T13:59:33.244Z,19.25
2017-11-13T14:02:00.815Z,25.23
2017-11-13T14:04:28.810Z,24.63
2017-11-13T14:06:57.091Z,26.93
2017-11-13T14:09:26.428Z,33.08
2017-11-13T14:11:54.155Z,27.17
2017-11-13T14:14:22.468Z,31.77
2017-11-13T14:16:50.044Z,26.57
2017-11-13T14:19:17.591Z,29.77
2017-11-13T14:21:45.129Z,28.47
2017-11-13T14:24:13.103Z,32.70
2017-11-13T14:26:40.655Z,27.90
2017-11-13T14:29:08.195Z,31.05
2017-11-13T14:31:41.274Z,28.98
2017-11-13T14:34:09.633Z,25.70
2017-11-13T14:36:37.224Z,26.70
2017-11-13T14:39:05.559Z,29.87
2017-11-13T14:41:33.108Z,29.63
2017-11-13T14:44:01.089Z,27.30
2017-11-13T14:46:28.646Z,29.75
2017-11-13T14:48:56.164Z,28.05
2017-11-13T14:51:23.756Z,30.48
2017-11-13T14:53:51.305Z,28.27
2017-11-13T14:56:19.239Z,27.80
2017-11-13T14:58:47.559Z,29.87
2017-11-13T15:01:15.091Z,26.05
2017-11-13T15:03:43.025Z,25.80
2017-11-13T15:06:11.028Z,26.83
2017-11-13T15:08:38.552Z,26.23
2017-11-13T15:11:06.857Z,28.58
2017-11-13T15:13:34.407Z,26.17
2017-11-13T15:16:02.315Z,25.37
2017-11-13T15:18:30.239Z,23.83
2017-11-13T15:20:58.938Z,26.00
2017-11-13T15:23:27.279Z,24.63
2017-11-13T15:25:54.827Z,26.85
2017-11-13T15:28:22.775Z,24.20
2017-11-13T15:30:51.068Z,21.80
2017-11-13T15:33:19.409Z,26.00
2017-11-13T15:35:46.981Z,21.40
2017-11-13T15:38:14.519Z,25.10
2017-11-13T15:40:43.211Z,24.77
2017-11-13T15:43:11.557Z,23.25
2017-11-13T15:45:40.244Z,25.10
2017-11-13T15:48:07.819Z,27.10
2017-11-13T15:50:35.804Z,35.47
2017-11-13T15:53:03.366Z,35.17
2017-11-13T15:55:31.316Z,36.60
2017-11-13T15:57:59.694Z,35.35
2017-11-13T16:00:27.668Z,36.85
2017-11-13T16:02:56.016Z,37.40
2017-11-13T16:05:24.376Z,39.38
2017-11-13T16:07:52.688Z,39.85
2017-11-13T16:10:20.233Z,40.63
2017-11-13T16:12:47.829Z,38.88
2017-11-13T16:15:16.141Z,41.95
2017-11-13T16:17:43.692Z,43.85
2017-11-13T16:20:11.682Z,39.85
2017-11-13T16:22:40.008Z,41.10
2017-11-13T16:25:07.965Z,39.42
2017-11-13T16:27:35.926Z,37.63
2017-11-13T16:30:03.869Z,39.70
2017-11-13T16:32:31.399Z,38.65
2017-11-13T16:34:59.380Z,38.40
2017-11-13T16:37:28.060Z,38.72
2017-11-13T16:39:55.604Z,37.35
2017-11-13T16:42:23.948Z,44.92
2017-11-13T16:44:51.479Z,45.12
2017-11-13T16:47:19.038Z,54.75
2017-11-13T16:49:47.040Z,52.90
2017-11-13T16:52:14.981Z,58.58
2017-11-13T16:54:42.518Z,57.92
2017-11-13T16:57:10.516Z,60.43
2017-11-13T16:59:38.477Z,61.55
2017-11-13T17:02:06.036Z,62.08
2017-11-13T17:04:33.604Z,61.70
2017-11-13T17:07:01.903Z,63.70
2017-11-13T17:09:29.865Z,60.95
2017-11-13T17:11:58.959Z,61.37
2017-11-13T17:14:26.502Z,62.53
2017-11-13T17:16:54.043Z,63.95
2017-11-13T17:19:21.641Z,63.10
2017-11-13T17:21:49.950Z,59.97
2017-11-13T17:24:18.267Z,63.70
2017-11-13T17:26:45.937Z,61.50
2017-11-13T17:29:13.481Z,60.15
2017-11-13T17:31:41.823Z,60.75
2017-11-13T17:34:10.150Z,56.28
2017-11-13T17:36:37.692Z,60.63
2017-11-13T17:39:05.236Z,58.72
2017-11-13T17:41:33.255Z,56.30
2017-11-13T17:44:00.904Z,61.00
2017-11-13T17:46:28.456Z,59.38
2017-11-13T17:48:56.011Z,53.67
2017-11-13T17:51:23.543Z,54.90
2017-11-13T17:53:51.858Z,55.63
2017-11-13T17:56:19.835Z,55.38
2017-11-13T17:58:47.405Z,52.97
2017-11-13T18:01:14.967Z,54.13
2017-11-13T18:03:42.549Z,52.47
2017-11-13T18:06:10.094Z,51.53
2017-11-13T18:08:38.412Z,53.22
2017-11-13T18:11:06.000Z,49.53
2017-11-13T18:13:33.956Z,52.90
2017-11-13T18:16:02.263Z,49.20
2017-11-13T18:18:30.228Z,52.62
2017-11-13T18:20:58.908Z,54.67
2017-11-13T18:23:26.448Z,57.67
2017-11-13T18:25:54.031Z,54.80
2017-11-13T18:28:21.589Z,64.25
2017-11-13T18:30:49.157Z,59.88
2017-11-13T18:33:16.731Z,65.28
2017-11-13T18:35:44.655Z,59.38
2017-11-13T18:38:12.203Z,59.30
2017-11-13T18:40:40.563Z,58.80
2017-11-13T18:43:08.116Z,57.37
2017-11-13T18:45:35.669Z,61.67
2017-11-13T18:48:04.025Z,58.55
2017-11-13T18:50:31.575Z,57.62
2017-11-13T18:52:59.134Z,62.33
2017-11-13T18:55:27.106Z,58.80
2017-11-13T18:57:54.648Z,53.53
2017-11-13T19:00:22.188Z,57.15
2017-11-13T19:02:51.323Z,53.83
2017-11-13T19:05:18.859Z,53.40
2017-11-13T19:07:46.799Z,56.20
2017-11-13T19:10:15.126Z,56.70
2017-11-13T19:12:42.643Z,54.25
2017-11-13T19:15:10.954Z,53.42
2017-11-13T19:17:38.541Z,53.42
2017-11-13T19:20:06.087Z,55.97
2017-11-13T19:22:33.620Z,49.40
2017-11-13T19:25:01.203Z,51.55
2017-11-13T19:27:28.727Z,53.60
2017-11-13T19:29:56.654Z,51.27
2017-11-13T19:32:24.235Z,50.07
2017-11-13T19:34:51.779Z,50.63
2017-11-13T19:37:19.321Z,49.65
2017-11-13T19:39:46.876Z,50.20
2017-11-13T19:42:14.403Z,54.90
2017-11-13T19:44:41.959Z,52.50
2017-11-13T19:47:09.539Z,52.53
2017-11-13T19:49:37.459Z,51.37
2017-11-13T19:52:05.000Z,49.40
2017-11-13T19:54:32.582Z,50.33
2017-11-13T19:57:00.107Z,48.73
2017-11-13T19:59:27.643Z,48.92
2017-11-13T20:01:56.578Z,50.33
2017-11-13T20:04:24.493Z,56.05
2017-11-13T20:06:51.999Z,50.05
2017-11-13T20:09:19.550Z,45.97
2017-11-13T20:11:47.827Z,48.60
2017-11-13T20:14:15.344Z,44.95
2017-11-13T20:16:42.913Z,46.58
2017-11-13T20:19:10.851Z,48.92
2017-11-13T20:21:39.171Z,52.38
2017-11-13T20:24:06.719Z,47.28
2017-11-13T20:26:34.628Z,47.95
2017-11-13T20:29:02.588Z,46.95
2017-11-13T20:31:30.984Z,42.88
2017-11-13T20:33:58.572Z,43.38
2017-11-13T20:36:26.855Z,41.47
2017-11-13T20:38:55.228Z,43.35
2017-11-13T20:41:23.192Z,44.97
2017-11-13T20:43:51.117Z,39.53
2017-11-13T20:46:18.668Z,46.20
2017-11-13T20:48:46.608Z,39.35
2017-11-13T20:51:14.608Z,39.08
2017-11-13T20:53:42.220Z,39.30
2017-11-13T20:56:10.572Z,42.30
2017-11-13T20:58:38.149Z,43.40
2017-11-13T21:01:05.756Z,37.00
2017-11-13T21:03:33.308Z,38.73
2017-11-13T21:06:00.881Z,40.03
2017-11-13T21:08:28.439Z,39.53
2017-11-13T21:10:56.401Z,40.30
2017-11-13T21:13:25.208Z,39.17
2017-11-13T21:15:52.908Z,37.03
2017-11-13T21:18:20.462Z,37.60
2017-11-13T21:20:48.008Z,36.67
2017-11-13T21:23:15.579Z,41.47
2017-11-13T21:25:43.119Z,36.03
2017-11-13T21:28:10.674Z,36.70
2017-11-13T21:30:38.256Z,36.17
2017-11-13T21:33:06.199Z,35.22
2017-11-13T21:35:33.743Z,36.25
2017-11-13T21:38:01.326Z,35.63
2017-11-13T21:40:28.893Z,34.92
2017-11-13T21:42:56.439Z,37.08
2017-11-13T21:45:24.787Z,33.13
2017-11-13T21:47:53.110Z,38.15
2017-11-13T21:50:21.577Z,33.60
2017-11-13T21:52:56.316Z,35.13
2017-11-13T21:55:24.251Z,35.30
2017-11-13T21:57:51.809Z,33.65
2017-11-13T22:00:19.801Z,31.30
2017-11-13T22:02:47.386Z,32.22
2017-11-13T22:05:15.028Z,31.02
2017-11-13T22:07:42.610Z,32.63
2017-11-13T22:10:10.161Z,35.53
2017-11-13T22:12:38.110Z,35.00
2017-11-13T22:15:06.113Z,30.75
2017-11-13T22:17:33.678Z,29.85
2017-11-13T22:20:01.633Z,34.22
2017-11-13T22:22:29.668Z,29.33
2017-11-13T22:24:57.248Z,29.37
2017-11-13T22:27:24.786Z,34.23
2017-11-13T22:29:53.114Z,30.50
2017-11-13T22:32:20.646Z,32.40
2017-11-13T22:34:48.189Z,28.75
2017-11-13T22:37:16.155Z,29.73
2017-11-13T22:39:43.712Z,30.85
2017-11-13T22:42:11.703Z,30.33
2017-11-13T22:44:39.701Z,27.90
2017-11-13T22:47:07.278Z,29.20
2017-11-13T22:49:34.787Z,31.30
2017-11-13T22:52:03.863Z,30.10
2017-11-13T22:54:31.374Z,29.70
2017-11-13T22:56:59.287Z,29.77
2017-11-13T22:59:27.261Z,25.50
2017-11-13T23:01:54.820Z,25.10
2017-11-13T23:04:22.371Z,25.55
2017-11-13T23:06:50.728Z,24.90
2017-11-13T23:09:19.030Z,32.20
2017-11-13T23:11:46.567Z,29.58
2017-11-13T23:14:14.898Z,25.63
2017-11-13T23:16:42.430Z,24.17
2017-11-13T23:19:10.343Z,25.25
2017-11-13T23:21:37.927Z,24.63
2017-11-13T23:24:05.487Z,26.58
2017-11-13T23:26:33.009Z,24.67
2017-11-13T23:29:02.092Z,25.42
2017-11-13T23:31:29.624Z,24.73
2017-11-13T23:33:57.927Z,24.12
2017-11-13T23:36:25.907Z,29.48
2017-11-13T23:38:53.419Z,23.50
2017-11-13T23:41:21.722Z,26.40
2017-11-13T23:43:49.287Z,25.65
2017-11-13T23:46:16.823Z,23.50
2017-11-13T23:48:45.116Z,25.65
2017-11-13T23:51:12.695Z,21.77
2017-11-13T23:53:40.220Z,22.83
2017-11-13T23:56:08.540Z,22.70
2017-11-13T23:58:36.092Z,23.77
